createdAt,value
2022-08-10T00:03:01.088Z,13.20
2022-08-10T00:08:04.734Z,13.00
2022-08-10T00:13:08.997Z,12.00
2022-08-10T00:18:11.857Z,12.50
2022-08-10T00:23:36.018Z,9.40
2022-08-10T00:28:39.401Z,10.70
2022-08-10T00:33:42.234Z,10.40
2022-08-10T00:38:45.467Z,10.20
2022-08-10T00:43:48.382Z,8.90
2022-08-10T00:49:00.124Z,8.10
2022-08-10T00:54:03.976Z,8.20
2022-08-10T00:59:07.004Z,11.70
2022-08-10T01:04:57.339Z,10.90
2022-08-10T01:10:03.307Z,10.70
2022-08-10T01:15:22.636Z,9.90
2022-08-10T01:20:47.396Z,10.20
2022-08-10T01:26:30.804Z,7.20
2022-08-10T01:31:40.627Z,8.40
2022-08-10T01:36:51.461Z,8.00
2022-08-10T01:42:03.984Z,7.90
2022-08-10T01:47:31.475Z,8.20
2022-08-10T01:52:37.487Z,9.60
2022-08-10T01:57:42.452Z,9.90
2022-08-10T02:02:47.099Z,8.90
2022-08-10T02:07:51.257Z,7.90
2022-08-10T02:12:57.640Z,10.40
2022-08-10T02:18:03.164Z,8.50
2022-08-10T02:23:11.668Z,8.40
2022-08-10T02:28:27.042Z,9.70
2022-08-10T02:33:37.177Z,10.00
2022-08-10T02:38:59.150Z,9.10
2022-08-10T02:45:20.365Z,8.10
2022-08-10T02:49:38.936Z,10.20
2022-08-10T02:54:51.128Z,8.10
2022-08-10T03:00:00.454Z,8.00
2022-08-10T03:05:23.599Z,9.00
2022-08-10T03:10:32.678Z,8.20
2022-08-10T03:15:39.004Z,7.50
2022-08-10T03:20:44.018Z,7.10
2022-08-10T03:25:52.648Z,5.50
2022-08-10T03:31:00.582Z,5.80
2022-08-10T03:36:40.038Z,6.20
2022-08-10T03:41:38.219Z,5.40
2022-08-10T03:46:44.152Z,8.40
2022-08-10T03:51:49.388Z,6.30
2022-08-10T03:56:53.770Z,6.20
2022-08-10T04:02:44.712Z,9.00
2022-08-10T04:07:20.077Z,5.90
2022-08-10T04:12:23.666Z,6.10
2022-08-10T04:18:04.340Z,8.70
2022-08-10T04:22:53.409Z,9.00
2022-08-10T04:27:58.126Z,5.80
2022-08-10T04:33:03.106Z,7.40
2022-08-10T04:38:07.165Z,9.00
2022-08-10T04:43:13.202Z,6.50
2022-08-10T04:48:40.073Z,6.30
2022-08-10T04:54:03.257Z,5.20
2022-08-10T04:59:03.372Z,5.40
2022-08-10T05:04:34.590Z,4.70
2022-08-10T05:09:30.446Z,5.30
2022-08-10T05:14:33.618Z,4.30
2022-08-10T05:20:03.409Z,4.50
2022-08-10T05:24:59.469Z,7.40
2022-08-10T05:30:03.702Z,11.60
2022-08-10T05:35:07.886Z,6.60
2022-08-10T05:40:11.128Z,8.00
2022-08-10T05:45:26.817Z,6.30
2022-08-10T05:50:34.854Z,7.10
2022-08-10T05:55:37.695Z,8.70
2022-08-10T06:00:49.770Z,7.90
2022-08-10T06:05:58.756Z,7.90
2022-08-10T06:12:24.048Z,6.60
2022-08-10T06:16:29.198Z,5.20
2022-08-10T06:21:33.607Z,6.20
2022-08-10T06:26:37.049Z,7.10
2022-08-10T06:31:48.113Z,5.90
2022-08-10T06:36:57.626Z,5.00
2022-08-10T06:42:15.966Z,5.90
2022-08-10T06:47:25.574Z,3.70
2022-08-10T06:52:31.896Z,6.10
2022-08-10T06:57:37.767Z,2.90
2022-08-10T07:02:50.915Z,4.30
2022-08-10T07:07:58.954Z,4.10
2022-08-10T07:13:04.467Z,3.00
2022-08-10T07:18:08.211Z,2.80
2022-08-10T07:23:57.527Z,4.50
2022-08-10T07:28:40.860Z,3.60
2022-08-10T07:33:47.011Z,3.10
2022-08-10T07:43:56.258Z,4.40
2022-08-10T07:49:19.393Z,2.50
2022-08-10T07:54:25.827Z,3.30
2022-08-10T07:59:37.976Z,3.10
2022-08-10T08:04:42.408Z,2.80
2022-08-10T08:09:57.626Z,4.20
2022-08-10T08:16:15.919Z,2.40
2022-08-10T08:20:31.023Z,2.20
2022-08-10T08:25:34.793Z,3.50
2022-08-10T08:30:40.127Z,2.20
2022-08-10T08:35:44.276Z,1.60
2022-08-10T08:40:59.084Z,2.90
2022-08-10T08:46:33.443Z,3.80
2022-08-10T08:52:08.017Z,2.20
2022-08-10T08:57:50.591Z,3.10
2022-08-10T09:03:30.282Z,1.50
2022-08-10T09:09:03.737Z,2.50
2022-08-10T09:14:30.828Z,2.30
2022-08-10T09:20:18.769Z,2.60
2022-08-10T09:25:30.129Z,1.30
2022-08-10T09:30:38.662Z,1.40
2022-08-10T09:36:29.832Z,2.70
2022-08-10T09:41:46.002Z,1.90
2022-08-10T09:46:52.240Z,2.40
2022-08-10T09:52:06.401Z,9.50
2022-08-10T09:57:44.334Z,4.50
2022-08-10T10:03:06.853Z,2.10
2022-08-10T10:08:24.030Z,2.90
2022-08-10T10:14:03.070Z,2.70
2022-08-10T10:19:15.793Z,2.50
2022-08-10T10:24:40.311Z,2.10
2022-08-10T10:30:01.321Z,3.40
2022-08-10T10:35:09.960Z,2.30
2022-08-10T10:40:16.240Z,1.90
2022-08-10T10:45:56.967Z,3.10
2022-08-10T10:51:35.118Z,2.00
2022-08-10T10:57:08.268Z,4.10
2022-08-10T11:02:43.882Z,2.10
2022-08-10T11:08:09.296Z,3.00
2022-08-10T11:14:27.100Z,2.30
2022-08-10T11:18:58.690Z,2.60
2022-08-10T11:24:48.748Z,2.80
2022-08-10T11:29:57.946Z,3.90
2022-08-10T11:35:15.954Z,2.60
2022-08-10T11:40:26.667Z,2.20
2022-08-10T11:45:32.601Z,1.60
2022-08-10T11:51:04.843Z,2.00
2022-08-10T11:56:11.412Z,2.30
2022-08-10T12:01:21.101Z,5.30
2022-08-10T12:06:53.693Z,2.00
2022-08-10T12:11:50.990Z,3.10
2022-08-10T12:17:08.267Z,2.60
2022-08-10T12:22:19.240Z,3.30
2022-08-10T12:27:52.731Z,2.40
2022-08-10T12:33:09.639Z,2.50
2022-08-10T12:38:41.169Z,2.50
2022-08-10T12:44:04.753Z,2.70
2022-08-10T12:49:37.389Z,2.70
2022-08-10T12:54:42.124Z,3.10
2022-08-10T12:59:48.950Z,2.30
2022-08-10T13:04:56.224Z,1.90
2022-08-10T13:10:11.068Z,1.90
2022-08-10T13:15:48.286Z,1.40
2022-08-10T13:20:55.700Z,6.20
2022-08-10T13:26:01.185Z,3.40
2022-08-10T13:36:16.048Z,3.80
2022-08-10T13:41:19.926Z,2.60
2022-08-10T13:46:23.920Z,2.80
2022-08-10T13:51:54.152Z,2.00
2022-08-10T13:56:56.942Z,3.90
2022-08-10T14:02:02.179Z,2.80
2022-08-10T14:07:05.723Z,3.00
2022-08-10T14:12:11.024Z,3.60
2022-08-10T14:17:17.861Z,2.90
2022-08-10T14:22:33.717Z,3.60
2022-08-10T14:28:02.128Z,2.90
2022-08-10T14:33:06.462Z,4.00
2022-08-10T14:38:13.449Z,3.20
2022-08-10T14:43:32.365Z,2.20
2022-08-10T14:48:41.384Z,2.50
2022-08-10T14:53:50.308Z,2.50
2022-08-10T14:59:07.735Z,2.10
2022-08-10T15:04:15.377Z,4.50
2022-08-10T15:09:21.572Z,3.20
2022-08-10T15:14:43.311Z,3.00
2022-08-10T15:20:03.199Z,2.60
2022-08-10T15:25:18.734Z,4.50
2022-08-10T15:30:32.292Z,2.20
2022-08-10T15:35:57.016Z,2.60
2022-08-10T15:41:02.410Z,3.60
2022-08-10T15:46:22.531Z,3.20
2022-08-10T15:52:01.851Z,5.10
2022-08-10T15:57:18.141Z,3.60
2022-08-10T16:02:47.448Z,4.40
2022-08-10T16:07:59.627Z,5.30
2022-08-10T16:13:59.854Z,2.80
2022-08-10T16:18:42.207Z,6.10
2022-08-10T16:24:11.384Z,3.00
2022-08-10T16:29:20.649Z,3.50
2022-08-10T16:34:26.261Z,3.60
2022-08-10T16:39:57.209Z,3.90
2022-08-10T16:45:07.734Z,3.20
2022-08-10T16:50:12.535Z,3.60
2022-08-10T16:55:24.482Z,4.80
2022-08-10T17:00:45.989Z,4.30
2022-08-10T17:06:05.856Z,3.40
2022-08-10T17:11:15.363Z,5.30
2022-08-10T17:16:18.369Z,4.90
2022-08-10T17:21:25.669Z,4.60
2022-08-10T17:26:35.915Z,3.80
2022-08-10T17:31:55.460Z,5.00
2022-08-10T17:37:02.553Z,5.10
2022-08-10T17:42:07.089Z,3.80
2022-08-10T17:47:11.825Z,5.30
2022-08-10T17:52:22.098Z,4.10
2022-08-10T17:57:27.538Z,5.20
2022-08-10T18:02:36.806Z,4.00
2022-08-10T18:07:48.035Z,5.10
2022-08-10T18:12:56.660Z,7.30
2022-08-10T18:18:02.730Z,10.00
2022-08-10T18:23:08.013Z,6.70
2022-08-10T18:28:18.192Z,7.30
2022-08-10T18:33:37.320Z,6.50
2022-08-10T18:38:46.469Z,5.10
2022-08-10T18:44:06.135Z,5.60
2022-08-10T18:49:29.028Z,5.30
2022-08-10T18:54:44.229Z,7.10
2022-08-10T19:00:13.524Z,6.70
2022-08-10T19:05:53.591Z,5.30
2022-08-10T19:11:00.418Z,5.00
2022-08-10T19:16:21.174Z,7.20
2022-08-10T19:21:33.226Z,5.80
2022-08-10T19:26:55.313Z,4.30
2022-08-10T19:32:10.502Z,5.70
2022-08-10T19:37:32.170Z,4.00
2022-08-10T19:42:50.006Z,5.80
2022-08-10T19:48:04.147Z,5.30
2022-08-10T19:53:32.866Z,6.70
2022-08-10T19:59:01.378Z,4.40
2022-08-10T20:04:16.160Z,9.00
2022-08-10T20:09:38.573Z,6.30
2022-08-10T20:15:06.657Z,5.80
2022-08-10T20:20:15.053Z,4.60
2022-08-10T20:25:27.890Z,5.50
2022-08-10T20:30:36.634Z,5.00
2022-08-10T20:35:49.918Z,7.60
2022-08-10T20:41:16.550Z,6.30
2022-08-10T20:46:28.692Z,5.60
2022-08-10T20:51:58.560Z,7.40
2022-08-10T20:57:56.145Z,4.90
2022-08-10T21:03:15.738Z,4.90
2022-08-10T21:08:40.635Z,6.80
2022-08-10T21:13:54.067Z,8.20
2022-08-10T21:19:36.207Z,5.50
2022-08-10T21:24:49.957Z,9.10
2022-08-10T21:30:11.449Z,10.50
2022-08-10T21:35:36.650Z,11.10
2022-08-10T21:41:17.508Z,5.30
2022-08-10T21:46:54.554Z,6.20
2022-08-10T21:52:31.146Z,8.90
2022-08-10T21:58:21.384Z,8.10
2022-08-10T22:03:50.510Z,8.10
2022-08-10T22:09:33.861Z,6.10
2022-08-10T22:15:06.960Z,8.20
2022-08-10T22:20:41.521Z,6.90
2022-08-10T22:26:36.555Z,9.00
2022-08-10T22:32:31.310Z,9.30
2022-08-10T22:38:24.866Z,7.30
2022-08-10T22:43:49.988Z,6.80
2022-08-10T22:49:01.989Z,9.10
2022-08-10T22:54:42.937Z,7.20
2022-08-10T22:59:47.104Z,8.30
2022-08-10T23:04:59.115Z,8.80
2022-08-10T23:10:07.501Z,6.90
2022-08-10T23:15:47.957Z,6.10
2022-08-10T23:20:53.144Z,8.30
2022-08-10T23:25:59.453Z,7.90
2022-08-10T23:31:04.357Z,9.20
2022-08-10T23:36:33.660Z,8.10
2022-08-10T23:41:37.526Z,8.00
2022-08-10T23:46:44.111Z,7.60
2022-08-10T23:57:01.789Z,6.50
